createdAt,value
2023-02-22T00:02:46.628Z,15.63
2023-02-22T00:07:51.457Z,17.03
2023-02-22T00:12:56.317Z,15.47
2023-02-22T00:17:59.340Z,15.07
2023-02-22T00:23:07.116Z,12.70
2023-02-22T00:28:10.004Z,14.57
2023-02-22T00:33:13.573Z,15.70
2023-02-22T00:38:20.176Z,16.83
2023-02-22T00:43:22.997Z,16.37
2023-02-22T00:48:25.742Z,16.67
2023-02-22T00:53:29.951Z,16.43
2023-02-22T00:58:32.841Z,17.53
2023-02-22T01:03:35.604Z,16.30
2023-02-22T01:08:39.931Z,14.80
2023-02-22T01:13:45.241Z,14.53
2023-02-22T01:18:48.020Z,16.10
2023-02-22T01:23:52.993Z,18.27
2023-02-22T01:28:55.836Z,20.20
2023-02-22T01:33:58.625Z,17.63
2023-02-22T01:39:02.783Z,19.97
2023-02-22T01:44:19.606Z,18.77
2023-02-22T01:49:22.423Z,16.13
2023-02-22T01:54:29.245Z,16.20
2023-02-22T01:59:33.733Z,17.67
2023-02-22T02:04:37.136Z,16.80
2023-02-22T02:09:49.890Z,16.10
2023-02-22T02:14:54.763Z,15.43
2023-02-22T02:20:08.244Z,16.77
2023-02-22T02:25:26.529Z,15.33
2023-02-22T02:30:46.869Z,15.13
2023-02-22T02:35:56.342Z,15.53
2023-02-22T02:41:06.801Z,15.37
2023-02-22T02:46:13.543Z,17.93
2023-02-22T02:51:19.533Z,15.00
2023-02-22T02:56:23.433Z,14.30
2023-02-22T03:01:42.549Z,14.60
2023-02-22T03:06:55.764Z,14.60
2023-02-22T03:12:07.981Z,14.77
2023-02-22T03:17:19.101Z,13.77
2023-02-22T03:22:27.660Z,14.27
2023-02-22T03:27:35.886Z,12.40
2023-02-22T03:32:42.541Z,12.10
2023-02-22T03:37:50.290Z,14.37
2023-02-22T03:42:56.888Z,12.67
2023-02-22T03:48:06.352Z,13.43
2023-02-22T03:53:11.420Z,13.83
2023-02-22T03:58:16.925Z,13.33
2023-02-22T04:03:20.296Z,11.83
2023-02-22T04:08:25.051Z,13.67
2023-02-22T04:13:28.499Z,14.13
2023-02-22T04:18:31.970Z,15.93
2023-02-22T04:23:37.482Z,13.50
2023-02-22T04:28:40.965Z,12.47
2023-02-22T04:33:48.883Z,14.97
2023-02-22T04:38:56.888Z,13.07
2023-02-22T04:43:59.793Z,14.10
2023-02-22T04:49:03.578Z,13.53
2023-02-22T04:54:10.916Z,15.27
2023-02-22T04:59:17.730Z,13.90
2023-02-22T05:04:22.951Z,15.53
2023-02-22T05:09:27.143Z,11.77
2023-02-22T05:14:29.953Z,15.57
2023-02-22T05:19:32.773Z,14.37
2023-02-22T05:24:37.154Z,15.07
2023-02-22T05:29:40.010Z,13.73
2023-02-22T05:34:42.798Z,13.60
2023-02-22T05:39:47.506Z,14.80
2023-02-22T05:44:50.361Z,14.73
2023-02-22T05:49:53.204Z,13.23
2023-02-22T05:54:57.425Z,15.10
2023-02-22T06:00:00.263Z,16.00
2023-02-22T06:05:03.216Z,17.23
2023-02-22T06:10:07.838Z,15.57
2023-02-22T06:15:10.699Z,12.80
2023-02-22T06:20:16.253Z,13.67
2023-02-22T06:25:22.087Z,13.30
2023-02-22T06:30:26.532Z,13.93
2023-02-22T06:35:29.430Z,12.50
2023-02-22T06:40:33.689Z,12.80
2023-02-22T06:45:36.437Z,12.47
2023-02-22T06:50:39.359Z,13.07
2023-02-22T06:55:43.474Z,14.30
2023-02-22T07:00:46.272Z,15.27
2023-02-22T07:05:49.000Z,13.20
2023-02-22T07:10:53.793Z,13.23
2023-02-22T07:15:56.707Z,13.67
2023-02-22T07:20:59.724Z,14.50
2023-02-22T07:26:05.593Z,15.37
2023-02-22T07:31:08.396Z,17.67
2023-02-22T07:36:13.681Z,13.87
2023-02-22T07:41:18.167Z,14.10
2023-02-22T07:46:21.345Z,17.83
2023-02-22T07:51:24.359Z,14.17
2023-02-22T07:56:28.684Z,14.40
2023-02-22T08:01:31.967Z,15.87
2023-02-22T08:06:34.832Z,16.90
2023-02-22T08:11:39.164Z,15.37
2023-02-22T08:16:42.101Z,14.90
2023-02-22T08:21:44.909Z,12.77
2023-02-22T08:26:49.043Z,14.00
2023-02-22T08:31:54.064Z,14.00
2023-02-22T08:36:57.184Z,14.57
2023-02-22T08:42:01.356Z,16.20
2023-02-22T08:47:04.413Z,16.37
2023-02-22T08:52:07.230Z,16.77
2023-02-22T08:57:11.699Z,14.80
2023-02-22T09:02:16.713Z,14.37
2023-02-22T09:07:19.686Z,14.33
2023-02-22T09:12:23.880Z,13.20
2023-02-22T09:17:26.740Z,14.30
2023-02-22T09:22:29.502Z,13.67
2023-02-22T09:27:33.621Z,15.67
2023-02-22T09:32:37.777Z,15.57
2023-02-22T09:37:44.578Z,13.43
2023-02-22T09:42:56.499Z,13.67
2023-02-22T09:48:15.259Z,13.37
2023-02-22T09:53:29.856Z,13.93
2023-02-22T09:58:35.689Z,12.13
2023-02-22T10:03:47.901Z,13.90
2023-02-22T10:08:53.887Z,14.27
2023-02-22T10:14:03.837Z,12.67
2023-02-22T10:19:18.226Z,13.43
2023-02-22T10:24:33.778Z,12.30
2023-02-22T10:29:41.750Z,12.33
2023-02-22T10:34:48.486Z,12.60
2023-02-22T10:39:52.893Z,15.57
2023-02-22T10:44:57.252Z,11.07
2023-02-22T10:50:01.448Z,12.63
2023-02-22T10:55:15.226Z,11.17
2023-02-22T11:00:26.281Z,13.17
2023-02-22T11:05:31.861Z,12.63
2023-02-22T11:10:38.729Z,13.17
2023-02-22T11:15:44.221Z,11.53
2023-02-22T11:20:47.067Z,13.57
2023-02-22T11:25:51.861Z,12.47
2023-02-22T11:30:56.838Z,12.40
2023-02-22T11:36:02.391Z,10.57
2023-02-22T11:41:15.610Z,11.40
2023-02-22T11:46:21.804Z,10.40
2023-02-22T11:51:36.473Z,10.67
2023-02-22T11:56:43.643Z,8.23
2023-02-22T12:01:52.420Z,9.07
2023-02-22T12:07:05.826Z,9.17
2023-02-22T12:12:15.991Z,8.87
2023-02-22T12:17:31.972Z,8.63
2023-02-22T12:22:37.970Z,8.37
2023-02-22T12:28:10.051Z,8.60
2023-02-22T12:33:24.260Z,8.80
2023-02-22T12:38:33.833Z,9.07
2023-02-22T12:43:42.002Z,8.10
2023-02-22T12:48:51.986Z,8.07
2023-02-22T12:54:01.437Z,8.53
2023-02-22T12:59:09.149Z,7.93
2023-02-22T13:04:20.938Z,8.30
2023-02-22T13:09:38.613Z,9.83
2023-02-22T13:14:50.734Z,9.67
2023-02-22T13:20:00.245Z,8.37
2023-02-22T13:25:09.438Z,8.93
2023-02-22T13:30:18.454Z,9.43
2023-02-22T13:35:37.484Z,9.03
2023-02-22T13:40:50.757Z,9.80
2023-02-22T13:46:07.583Z,6.77
2023-02-22T13:51:15.921Z,8.30
2023-02-22T13:56:20.134Z,9.70
2023-02-22T14:01:45.694Z,9.03
2023-02-22T14:06:51.258Z,8.03
2023-02-22T14:11:57.080Z,8.77
2023-02-22T14:17:25.970Z,8.63
2023-02-22T14:22:31.297Z,9.20
2023-02-22T14:27:40.997Z,9.20
2023-02-22T14:32:44.081Z,9.40
2023-02-22T14:37:50.597Z,9.20
2023-02-22T14:43:01.951Z,10.90
2023-02-22T14:48:13.648Z,9.83
2023-02-22T14:53:25.387Z,10.93
2023-02-22T14:58:33.341Z,9.97
2023-02-22T15:03:38.224Z,11.13
2023-02-22T15:08:42.694Z,10.57
2023-02-22T15:13:50.920Z,9.77
2023-02-22T15:18:55.038Z,10.83
2023-02-22T15:24:00.758Z,10.27
2023-02-22T15:29:09.231Z,8.93
2023-02-22T15:34:24.441Z,11.10
2023-02-22T15:39:33.158Z,10.27
2023-02-22T15:44:38.693Z,11.03
2023-02-22T15:49:41.525Z,9.97
2023-02-22T15:54:48.804Z,11.87
2023-02-22T15:59:53.706Z,10.77
2023-02-22T16:04:59.939Z,11.60
2023-02-22T16:10:09.199Z,11.63
2023-02-22T16:15:17.491Z,9.87
2023-02-22T16:20:36.225Z,11.37
2023-02-22T16:25:40.482Z,12.43
2023-02-22T16:30:43.463Z,12.77
2023-02-22T16:36:09.415Z,13.00
2023-02-22T16:41:16.155Z,14.53
2023-02-22T16:46:21.470Z,13.00
2023-02-22T16:51:27.146Z,13.47
2023-02-22T16:56:32.421Z,14.80
2023-02-22T17:01:35.663Z,16.73
2023-02-22T17:06:38.752Z,16.63
2023-02-22T17:11:43.925Z,16.03
2023-02-22T17:16:47.643Z,19.80
2023-02-22T17:21:51.407Z,18.60
2023-02-22T17:26:57.419Z,18.63
2023-02-22T17:32:00.422Z,18.97
2023-02-22T17:37:04.803Z,19.27
2023-02-22T17:42:09.176Z,16.47
2023-02-22T17:47:12.021Z,19.50
2023-02-22T17:52:15.992Z,18.53
2023-02-22T17:57:20.248Z,18.23
2023-02-22T18:02:23.160Z,19.27
2023-02-22T18:07:26.356Z,19.37
2023-02-22T18:12:31.149Z,20.03
2023-02-22T18:17:34.024Z,17.30
2023-02-22T18:22:36.858Z,20.23
2023-02-22T18:27:43.178Z,19.40
2023-02-22T18:32:46.399Z,17.03
2023-02-22T18:37:49.442Z,19.10
2023-02-22T18:42:53.683Z,19.47
2023-02-22T18:47:56.568Z,20.10
2023-02-22T18:52:59.473Z,18.67
2023-02-22T18:58:04.805Z,17.97
2023-02-22T19:03:07.750Z,19.90
2023-02-22T19:08:11.378Z,18.17
2023-02-22T19:13:16.664Z,19.13
2023-02-22T19:18:20.615Z,21.03
2023-02-22T19:23:23.681Z,20.10
2023-02-22T19:28:33.983Z,19.47
2023-02-22T19:33:37.021Z,18.70
2023-02-22T19:38:40.448Z,18.00
2023-02-22T19:43:44.647Z,19.30
2023-02-22T19:48:47.537Z,21.70
2023-02-22T19:53:50.496Z,19.50
2023-02-22T19:58:56.315Z,22.77
2023-02-22T20:04:03.702Z,20.07
2023-02-22T20:09:07.943Z,18.67
2023-02-22T20:14:17.766Z,21.07
2023-02-22T20:19:22.463Z,24.37
2023-02-22T20:24:27.617Z,20.23
2023-02-22T20:29:31.821Z,23.33
2023-02-22T20:34:36.202Z,21.07
2023-02-22T20:39:39.109Z,21.33
2023-02-22T20:44:44.973Z,19.27
2023-02-22T20:49:47.835Z,21.47
2023-02-22T20:54:50.601Z,23.20
2023-02-22T20:59:54.850Z,20.20
2023-02-22T21:04:58.111Z,20.67
2023-02-22T21:10:00.931Z,20.60
2023-02-22T21:15:07.065Z,19.67
2023-02-22T21:20:12.140Z,18.47
2023-02-22T21:25:16.574Z,21.47
2023-02-22T21:30:20.890Z,21.93
2023-02-22T21:35:24.273Z,20.93
2023-02-22T21:40:27.511Z,21.03
2023-02-22T21:45:31.812Z,22.30
2023-02-22T21:50:37.717Z,20.13
2023-02-22T21:55:40.896Z,19.60
2023-02-22T22:00:45.480Z,23.90
2023-02-22T22:05:49.062Z,19.03
2023-02-22T22:10:55.270Z,21.57
2023-02-22T22:16:05.857Z,21.07
2023-02-22T22:21:13.918Z,18.47
2023-02-22T22:26:19.976Z,19.03
2023-02-22T22:31:25.864Z,20.57
2023-02-22T22:36:28.990Z,19.80
2023-02-22T22:41:33.827Z,18.17
2023-02-22T22:46:40.958Z,19.27
2023-02-22T22:51:47.367Z,20.10
2023-02-22T22:56:50.300Z,17.53
2023-02-22T23:01:56.642Z,19.37
2023-02-22T23:07:00.553Z,19.47
2023-02-22T23:12:09.450Z,19.37
2023-02-22T23:17:15.332Z,20.37
2023-02-22T23:22:18.141Z,20.47
2023-02-22T23:27:20.872Z,16.80
2023-02-22T23:32:26.748Z,19.87
2023-02-22T23:37:35.356Z,17.53
2023-02-22T23:42:38.765Z,19.27
2023-02-22T23:47:43.809Z,16.87
2023-02-22T23:52:46.713Z,17.63
2023-02-22T23:57:49.589Z,14.50
